• Join FlightAware (Why Join?)
  • Login
  • US Flag 
09:14PM EDT


 

Airport Tracker/Info


-or-


 

Live Flight TrackerFlight Track Log ✈ RPA3436 ✈ 09-Jul-2013 ✈ KCHS - KDCA

Flight Track Log - Related Links

Times and Time Zones

All times are in EDT time to prevent confusion due to time zone crossing. See the RPA3436 flight status page for this flight to view local times or setup timezone preferences in your user account.

Time Position Orientation Groundspeed Altitude Reporting Facility
EDT Latitude Longitude Course Direction KTS MPH feet Rate Location/Type
08:20AM 32.8586 -80.0364 13° North 172 198 1,400  Level Jacksonville Center
08:21AM 33.1501 -79.9500 North  Level FlightAware Approximate
08:21AM 32.8908 -79.9858 53° Northeast 205 236 3,200  Level Jacksonville Center
08:22AM 33.2403 -79.9286 North  Level FlightAware Approximate
08:22AM 32.9483 -79.9419 33° Northeast 219 252 6,200  Level Jacksonville Center
08:23AM 33.3294 -79.9020 23° Northeast  Level FlightAware Approximate
08:23AM 33.0275 -79.9344 North 248 285 9,000  Level Jacksonville Center
08:24AM 33.4180 -79.8731 North  Level FlightAware Approximate
08:24AM 33.1083 -79.9094 15° North 269 310 10,700  Level Jacksonville Center
08:25AM 33.5084 -79.8500 13° North  Level FlightAware Approximate
08:25AM 33.1969 -79.8592 25° Northeast 311 358 13,000  Level Jacksonville Center
08:26AM 33.2875 -79.8114 24° Northeast 337 388 15,200 2,040 Climbing Jacksonville Center
08:27AM 33.3761 -79.7611 25° Northeast 368 423 17,100 1,680 Climbing Jacksonville Center
08:28AM 33.4750 -79.7078 24° Northeast 375 432 18,600 1,740 Climbing Jacksonville Center
08:29AM 33.5756 -79.6494 26° Northeast 381 438 20,600 1,800 Climbing Jacksonville Center
08:30AM 33.6786 -79.5931 24° Northeast 396 456 22,300 1,680 Climbing Jacksonville Center
08:31AM 33.7833 -79.5342 25° Northeast 401 461 24,000 1,320 Climbing Jacksonville Center
08:32AM 33.8903 -79.4778 24° Northeast 406 467 25,000 480 Climbing Jacksonville Center
08:33AM 33.9953 -79.4183 25° Northeast 412 474 25,000  Level Jacksonville Center
08:34AM 34.1061 -79.3589 24° Northeast 417 480 25,000 60 Level Jacksonville Center
08:36AM 34.3336 -79.2261 26° Northeast 429 494 25,300 720 Climbing Washington Center
08:37AM 34.4419 -79.1628 26° Northeast 435 501 27,200 1,500 Climbing Washington Center
08:38AM 34.5522 -79.1019 24° Northeast 430 495 28,300 1,320 Climbing Washington Center
08:39AM 34.6583 -79.0383 26° Northeast 430 495 29,900 1,320 Climbing Washington Center
08:40AM 34.7644 -78.9772 25° Northeast 425 489 31,000 540 Climbing Washington Center
08:41AM 34.8769 -78.9136 25° Northeast 425 489 31,000  Level Washington Center
08:42AM 34.9894 -78.8447 27° Northeast 436 502 31,000  Level Washington Center
08:43AM 35.1039 -78.7783 25° Northeast 436 502 31,000  Level Washington Center
08:44AM 35.2203 -78.7117 25° Northeast 442 509 31,000  Level Washington Center
08:45AM 35.3325 -78.6447 26° Northeast 448 516 31,000  Level Washington Center
08:46AM 35.4619 -78.5681 26° Northeast 454 522 31,000  Level Washington Center
08:47AM 35.5636 -78.5053 27° Northeast 454 522 31,000  Level Washington Center
08:48AM 35.6947 -78.4308 25° Northeast 462 532 31,000  Level Washington Center
08:49AM 35.8069 -78.3633 26° Northeast 455 524 31,000  Level Washington Center
08:50AM 35.9211 -78.2953 26° Northeast 455 524 31,000  Level Washington Center
08:51AM 36.0353 -78.2247 27° Northeast 449 517 31,000 -120 Level Washington Center
08:52AM 36.1494 -78.1567 26° Northeast 449 517 30,800 -1,140 Descending Washington Center
08:53AM 36.2614 -78.0908 25° Northeast 449 517 28,800 -1,920 Descending Washington Center
08:54AM 36.3733 -78.0219 26° Northeast 449 517 27,000 -900 Descending Washington Center
08:55AM 36.4811 -77.9556 26° Northeast 444 511 27,000  Level Washington Center
08:56AM 36.5931 -77.8839 27° Northeast 444 511 27,000 -600 Level Washington Center
08:57AM 36.7089 -77.8278 21° North 444 511 25,900 -1,140 Descending Washington Center
08:58AM 36.8247 -77.7792 19° North 439 505 24,700 -1,200 Descending Washington Center
08:59AM 36.9403 -77.7331 18° North 432 497 23,500 -1,260 Descending Washington Center
09:00AM 37.0517 -77.6842 19° North 427 491 22,300 -780 Descending Washington Center
09:01AM 37.1631 -77.6378 18° North 427 491 22,000 -180 Descending Washington Center
09:02AM 37.2764 -77.5911 18° North 427 491 22,000  Level Washington Center
09:03AM 37.3897 -77.5444 18° North 427 491 22,000  Level Washington Center
09:04AM 37.5011 -77.4950 19° North 427 491 22,000 -120 Level Washington Center
09:05AM 37.6144 -77.4481 18° North 427 491 21,800 -1,140 Descending Washington Center
09:06AM 37.7258 -77.4008 19° North 427 491 19,800 -1,920 Descending Washington Center
09:07AM 37.8328 -77.3533 19° North 415 478 18,000 -1,860 Descending Washington Center
09:08AM 37.9378 -77.3083 19° North 405 466 16,200 -1,860 Descending Washington Center
09:09AM 38.0386 -77.2686 17° North 395 455 14,300 -1,800 Descending Washington Center
09:10AM 38.1392 -77.2258 18° North 389 448 12,600 -1,800 Descending Washington Center
09:11AM 38.2356 -77.1831 19° North 376 433 10,800 -1,380 Descending Washington Center
09:12AM 38.3236 -77.1533 15° North 351 404 10,000 -420 Descending Washington Center
09:13AM 38.3989 -77.1494 North 304 350 10,000 -600 Level Washington Center
09:14AM 38.4739 -77.1431 North 277 319 8,900 -1,020 Descending Washington Center
09:15AM 38.5492 -77.1342 North 266 306 8,000 -480 Descending Washington Center
09:16AM 38.5689 -77.0575 72° East 200 230 8,000  Level Washington Center
09:17AM 38.5803 -76.9781 80° East 195 224 8,000 -300 Level Washington Center
09:18AM 38.5494 -76.9269 128° Southeast 161 185 7,500 -900 Descending Washington Center
09:19AM 38.4892 -76.9206 175° South 168 193 6,200 -1,260 Descending Washington Center
09:20AM 38.5167 -77.0000 294° West 196 226 4,100 -780 Descending Potomac TRACON
09:22AM 38.5667 -77.0000 360° North 173 199 4,000 -60 Descending Potomac TRACON
09:22AM 38.6000 -77.0167 339° North 164 189 4,000 -360 Level Potomac TRACON
09:23AM 38.6333 -77.0500 322° Northwest 170 196 3,400 -780 Descending Potomac TRACON
09:24AM 38.6833 -77.0333 15° North 154 177 2,500 -540 Descending Potomac TRACON
09:25AM 38.7167 -77.0333 360° North 153 176 2,400 -120 Descending Potomac TRACON